sensor_id;sensor_type;location;lat;lon;timestamp;temperature;humidity
48019;DHT22;33786;48.690;9.562;2023-02-20T00:00:25;8.10;99.90
48019;DHT22;33786;48.690;9.562;2023-02-20T00:02:52;8.10;99.90
48019;DHT22;33786;48.690;9.562;2023-02-20T00:05:19;8.10;99.90
48019;DHT22;33786;48.690;9.562;2023-02-20T00:07:46;8.10;99.90
48019;DHT22;33786;48.690;9.562;2023-02-20T00:10:12;8.10;99.90
48019;DHT22;33786;48.690;9.562;2023-02-20T00:12:39;8.10;99.90
48019;DHT22;33786;48.690;9.562;2023-02-20T00:15:06;8.20;99.90
48019;DHT22;33786;48.690;9.562;2023-02-20T00:17:33;8.20;99.90
48019;DHT22;33786;48.690;9.562;2023-02-20T00:20:00;8.20;99.90
48019;DHT22;33786;48.690;9.562;2023-02-20T00:22:27;8.10;99.90
48019;DHT22;33786;48.690;9.562;2023-02-20T00:24:53;8.20;99.90
48019;DHT22;33786;48.690;9.562;2023-02-20T00:27:20;8.20;99.90
48019;DHT22;33786;48.690;9.562;2023-02-20T00:29:47;8.30;99.90
48019;DHT22;33786;48.690;9.562;2023-02-20T00:32:14;8.40;99.90
48019;DHT22;33786;48.690;9.562;2023-02-20T00:34:40;8.30;99.90
48019;DHT22;33786;48.690;9.562;2023-02-20T00:37:07;8.30;99.90
48019;DHT22;33786;48.690;9.562;2023-02-20T00:39:34;8.30;99.90
48019;DHT22;33786;48.690;9.562;2023-02-20T00:42:01;8.30;99.90
48019;DHT22;33786;48.690;9.562;2023-02-20T00:44:27;8.20;99.90
48019;DHT22;33786;48.690;9.562;2023-02-20T00:46:54;8.20;99.90
48019;DHT22;33786;48.690;9.562;2023-02-20T00:49:21;8.10;99.90
48019;DHT22;33786;48.690;9.562;2023-02-20T00:51:47;8.10;99.90
48019;DHT22;33786;48.690;9.562;2023-02-20T00:54:14;8.10;99.90
48019;DHT22;33786;48.690;9.562;2023-02-20T00:56:41;8.00;99.90
48019;DHT22;33786;48.690;9.562;2023-02-20T00:59:08;8.00;99.90
48019;DHT22;33786;48.690;9.562;2023-02-20T01:01:34;8.00;99.90
48019;DHT22;33786;48.690;9.562;2023-02-20T01:04:01;8.10;99.90
48019;DHT22;33786;48.690;9.562;2023-02-20T01:06:28;8.10;99.90
48019;DHT22;33786;48.690;9.562;2023-02-20T01:08:54;8.20;99.90
48019;DHT22;33786;48.690;9.562;2023-02-20T01:11:21;8.10;99.90
48019;DHT22;33786;48.690;9.562;2023-02-20T01:13:48;8.10;99.90
48019;DHT22;33786;48.690;9.562;2023-02-20T01:16:15;8.10;99.90
48019;DHT22;33786;48.690;9.562;2023-02-20T01:18:41;8.10;99.90
48019;DHT22;33786;48.690;9.562;2023-02-20T01:21:08;8.10;99.90
48019;DHT22;33786;48.690;9.562;2023-02-20T01:23:35;8.00;99.90
48019;DHT22;33786;48.690;9.562;2023-02-20T01:26:01;8.00;99.90
48019;DHT22;33786;48.690;9.562;2023-02-20T01:28:28;8.00;99.90
48019;DHT22;33786;48.690;9.562;2023-02-20T01:30:55;8.00;99.90
48019;DHT22;33786;48.690;9.562;2023-02-20T01:33:21;7.90;99.90
48019;DHT22;33786;48.690;9.562;2023-02-20T01:35:48;8.00;99.90
48019;DHT22;33786;48.690;9.562;2023-02-20T01:38:15;7.90;99.90
48019;DHT22;33786;48.690;9.562;2023-02-20T01:40:45;7.90;99.90
48019;DHT22;33786;48.690;9.562;2023-02-20T01:43:12;7.90;99.90
48019;DHT22;33786;48.690;9.562;2023-02-20T01:45:38;7.90;99.90
48019;DHT22;33786;48.690;9.562;2023-02-20T01:48:10;7.80;99.90
48019;DHT22;33786;48.690;9.562;2023-02-20T01:50:42;7.80;99.90
48019;DHT22;33786;48.690;9.562;2023-02-20T01:53:10;7.70;99.90
48019;DHT22;33786;48.690;9.562;2023-02-20T01:55:42;7.70;99.90
48019;DHT22;33786;48.690;9.562;2023-02-20T01:58:23;7.70;99.90
48019;DHT22;33786;48.690;9.562;2023-02-20T02:00:52;7.70;99.90
48019;DHT22;33786;48.690;9.562;2023-02-20T02:03:21;7.60;99.90
48019;DHT22;33786;48.690;9.562;2023-02-20T02:05:51;7.70;99.90
48019;DHT22;33786;48.690;9.562;2023-02-20T02:08:20;7.60;99.90
48019;DHT22;33786;48.690;9.562;2023-02-20T02:13:16;7.60;99.90
48019;DHT22;33786;48.690;9.562;2023-02-20T02:15:43;7.50;99.90
48019;DHT22;33786;48.690;9.562;2023-02-20T02:31:14;7.50;99.90
48019;DHT22;33786;48.690;9.562;2023-02-20T02:39:04;7.50;99.90
48019;DHT22;33786;48.690;9.562;2023-02-20T02:44:05;7.60;99.90
48019;DHT22;33786;48.690;9.562;2023-02-20T02:46:37;7.60;99.90
48019;DHT22;33786;48.690;9.562;2023-02-20T02:49:06;7.60;99.90
48019;DHT22;33786;48.690;9.562;2023-02-20T02:51:36;7.60;99.90
48019;DHT22;33786;48.690;9.562;2023-02-20T02:56:38;7.50;99.90
48019;DHT22;33786;48.690;9.562;2023-02-20T02:59:06;7.60;99.90
48019;DHT22;33786;48.690;9.562;2023-02-20T03:01:35;7.60;99.90
48019;DHT22;33786;48.690;9.562;2023-02-20T03:04:04;7.60;99.90
48019;DHT22;33786;48.690;9.562;2023-02-20T03:06:34;7.60;99.90
48019;DHT22;33786;48.690;9.562;2023-02-20T03:09:04;7.70;99.90
48019;DHT22;33786;48.690;9.562;2023-02-20T03:11:32;7.70;99.90
48019;DHT22;33786;48.690;9.562;2023-02-20T03:14:06;7.60;99.90
48019;DHT22;33786;48.690;9.562;2023-02-20T03:19:30;7.50;99.90
48019;DHT22;33786;48.690;9.562;2023-02-20T03:21:58;7.50;99.90
48019;DHT22;33786;48.690;9.562;2023-02-20T03:24:26;7.50;99.90
48019;DHT22;33786;48.690;9.562;2023-02-20T03:26:54;7.40;99.90
48019;DHT22;33786;48.690;9.562;2023-02-20T03:29:23;7.50;99.90
48019;DHT22;33786;48.690;9.562;2023-02-20T03:31:54;7.50;99.90
48019;DHT22;33786;48.690;9.562;2023-02-20T03:34:41;7.40;99.90
48019;DHT22;33786;48.690;9.562;2023-02-20T03:37:27;7.30;99.90
48019;DHT22;33786;48.690;9.562;2023-02-20T03:40:14;7.30;99.90
48019;DHT22;33786;48.690;9.562;2023-02-20T03:43:01;7.40;99.90
48019;DHT22;33786;48.690;9.562;2023-02-20T03:45:48;7.30;99.90
48019;DHT22;33786;48.690;9.562;2023-02-20T03:48:26;7.30;99.90
48019;DHT22;33786;48.690;9.562;2023-02-20T03:50:55;7.30;99.90
48019;DHT22;33786;48.690;9.562;2023-02-20T03:53:40;7.10;99.90
48019;DHT22;33786;48.690;9.562;2023-02-20T03:56:08;7.20;99.90
48019;DHT22;33786;48.690;9.562;2023-02-20T03:58:36;7.20;99.90
48019;DHT22;33786;48.690;9.562;2023-02-20T04:01:06;7.10;99.90
48019;DHT22;33786;48.690;9.562;2023-02-20T04:03:35;7.30;99.90
48019;DHT22;33786;48.690;9.562;2023-02-20T04:06:05;7.20;99.90
48019;DHT22;33786;48.690;9.562;2023-02-20T04:08:37;7.30;99.90
48019;DHT22;33786;48.690;9.562;2023-02-20T04:11:12;7.30;99.90
48019;DHT22;33786;48.690;9.562;2023-02-20T04:13:40;7.30;99.90
48019;DHT22;33786;48.690;9.562;2023-02-20T04:16:07;7.30;99.90
48019;DHT22;33786;48.690;9.562;2023-02-20T04:18:34;7.40;99.90
48019;DHT22;33786;48.690;9.562;2023-02-20T04:21:01;7.40;99.90
48019;DHT22;33786;48.690;9.562;2023-02-20T04:23:30;7.40;99.90
48019;DHT22;33786;48.690;9.562;2023-02-20T04:26:07;7.30;99.90
48019;DHT22;33786;48.690;9.562;2023-02-20T04:28:35;7.30;99.90
48019;DHT22;33786;48.690;9.562;2023-02-20T04:31:01;7.30;99.90
48019;DHT22;33786;48.690;9.562;2023-02-20T04:33:28;7.20;99.90
48019;DHT22;33786;48.690;9.562;2023-02-20T04:35:55;7.20;99.90
48019;DHT22;33786;48.690;9.562;2023-02-20T04:38:23;7.20;99.90
48019;DHT22;33786;48.690;9.562;2023-02-20T04:40:50;7.00;99.90
48019;DHT22;33786;48.690;9.562;2023-02-20T04:43:17;7.00;99.90
48019;DHT22;33786;48.690;9.562;2023-02-20T04:45:43;6.90;99.90
48019;DHT22;33786;48.690;9.562;2023-02-20T04:48:10;6.90;99.90
48019;DHT22;33786;48.690;9.562;2023-02-20T04:50:37;6.80;99.90
48019;DHT22;33786;48.690;9.562;2023-02-20T04:53:03;6.70;99.90
48019;DHT22;33786;48.690;9.562;2023-02-20T04:55:30;6.70;99.90
48019;DHT22;33786;48.690;9.562;2023-02-20T04:57:57;6.60;99.90
48019;DHT22;33786;48.690;9.562;2023-02-20T05:00:24;6.60;99.90
48019;DHT22;33786;48.690;9.562;2023-02-20T05:02:51;6.50;99.90
48019;DHT22;33786;48.690;9.562;2023-02-20T05:05:22;6.50;99.90
48019;DHT22;33786;48.690;9.562;2023-02-20T05:07:53;6.40;99.90
48019;DHT22;33786;48.690;9.562;2023-02-20T05:10:20;6.50;99.90
48019;DHT22;33786;48.690;9.562;2023-02-20T05:12:46;6.50;99.90
48019;DHT22;33786;48.690;9.562;2023-02-20T05:15:13;6.50;99.90
48019;DHT22;33786;48.690;9.562;2023-02-20T05:17:40;6.40;99.90
48019;DHT22;33786;48.690;9.562;2023-02-20T05:20:07;6.40;99.90
48019;DHT22;33786;48.690;9.562;2023-02-20T05:22:33;6.40;99.90
48019;DHT22;33786;48.690;9.562;2023-02-20T05:25:00;6.40;99.90
48019;DHT22;33786;48.690;9.562;2023-02-20T05:27:27;6.40;99.90
48019;DHT22;33786;48.690;9.562;2023-02-20T05:29:54;6.30;99.90
48019;DHT22;33786;48.690;9.562;2023-02-20T05:32:22;6.20;99.90
48019;DHT22;33786;48.690;9.562;2023-02-20T05:34:50;6.30;99.90
48019;DHT22;33786;48.690;9.562;2023-02-20T05:37:17;6.10;99.90
48019;DHT22;33786;48.690;9.562;2023-02-20T05:39:45;6.10;99.90
48019;DHT22;33786;48.690;9.562;2023-02-20T05:42:12;6.10;99.90
48019;DHT22;33786;48.690;9.562;2023-02-20T05:44:39;6.10;99.90
48019;DHT22;33786;48.690;9.562;2023-02-20T05:47:06;6.10;99.90
48019;DHT22;33786;48.690;9.562;2023-02-20T05:49:33;6.00;99.90
48019;DHT22;33786;48.690;9.562;2023-02-20T05:52:01;6.00;99.90
48019;DHT22;33786;48.690;9.562;2023-02-20T05:54:28;6.00;99.90
48019;DHT22;33786;48.690;9.562;2023-02-20T05:56:55;5.90;99.90
48019;DHT22;33786;48.690;9.562;2023-02-20T05:59:22;5.80;99.90
48019;DHT22;33786;48.690;9.562;2023-02-20T06:01:49;5.80;99.90
48019;DHT22;33786;48.690;9.562;2023-02-20T06:04:21;5.70;99.90
48019;DHT22;33786;48.690;9.562;2023-02-20T06:06:48;5.60;99.90
48019;DHT22;33786;48.690;9.562;2023-02-20T06:09:15;5.60;99.90
48019;DHT22;33786;48.690;9.562;2023-02-20T06:11:49;5.50;99.90
48019;DHT22;33786;48.690;9.562;2023-02-20T06:14:17;5.50;99.90
48019;DHT22;33786;48.690;9.562;2023-02-20T06:16:44;5.50;99.90
48019;DHT22;33786;48.690;9.562;2023-02-20T06:19:11;5.50;99.90
48019;DHT22;33786;48.690;9.562;2023-02-20T06:21:43;5.40;99.90
48019;DHT22;33786;48.690;9.562;2023-02-20T06:24:09;5.40;99.90
48019;DHT22;33786;48.690;9.562;2023-02-20T06:26:40;5.30;99.90
48019;DHT22;33786;48.690;9.562;2023-02-20T06:29:07;5.30;99.90
48019;DHT22;33786;48.690;9.562;2023-02-20T06:31:35;5.30;99.90
48019;DHT22;33786;48.690;9.562;2023-02-20T06:34:02;5.30;99.90
48019;DHT22;33786;48.690;9.562;2023-02-20T06:36:31;5.30;99.90
48019;DHT22;33786;48.690;9.562;2023-02-20T06:38:58;5.30;99.90
48019;DHT22;33786;48.690;9.562;2023-02-20T06:41:25;5.30;99.90
48019;DHT22;33786;48.690;9.562;2023-02-20T06:43:51;5.30;99.90
48019;DHT22;33786;48.690;9.562;2023-02-20T06:46:18;5.30;99.90
48019;DHT22;33786;48.690;9.562;2023-02-20T06:48:45;5.30;99.90
48019;DHT22;33786;48.690;9.562;2023-02-20T06:51:14;5.40;99.90
48019;DHT22;33786;48.690;9.562;2023-02-20T06:53:41;5.40;99.90
48019;DHT22;33786;48.690;9.562;2023-02-20T06:56:09;5.40;99.90
48019;DHT22;33786;48.690;9.562;2023-02-20T06:58:37;5.40;99.90
48019;DHT22;33786;48.690;9.562;2023-02-20T07:01:03;5.50;99.90
48019;DHT22;33786;48.690;9.562;2023-02-20T07:03:30;5.50;99.90
48019;DHT22;33786;48.690;9.562;2023-02-20T07:05:57;5.70;99.90
48019;DHT22;33786;48.690;9.562;2023-02-20T07:08:24;5.80;99.90
48019;DHT22;33786;48.690;9.562;2023-02-20T07:10:50;5.90;99.90
48019;DHT22;33786;48.690;9.562;2023-02-20T07:13:21;6.10;99.90
48019;DHT22;33786;48.690;9.562;2023-02-20T07:15:48;6.60;99.90
48019;DHT22;33786;48.690;9.562;2023-02-20T07:18:15;8.30;99.90
48019;DHT22;33786;48.690;9.562;2023-02-20T07:20:43;10.50;99.90
48019;DHT22;33786;48.690;9.562;2023-02-20T07:23:11;12.10;96.80
48019;DHT22;33786;48.690;9.562;2023-02-20T07:25:38;13.20;94.40
48019;DHT22;33786;48.690;9.562;2023-02-20T07:28:05;14.70;92.10
48019;DHT22;33786;48.690;9.562;2023-02-20T07:30:33;16.20;88.80
48019;DHT22;33786;48.690;9.562;2023-02-20T07:33:00;17.20;84.20
48019;DHT22;33786;48.690;9.562;2023-02-20T07:35:27;17.90;81.30
48019;DHT22;33786;48.690;9.562;2023-02-20T07:37:53;18.70;78.80
48019;DHT22;33786;48.690;9.562;2023-02-20T07:40:20;19.50;76.80
48019;DHT22;33786;48.690;9.562;2023-02-20T07:42:47;20.00;74.60
48019;DHT22;33786;48.690;9.562;2023-02-20T07:45:14;20.50;72.90
48019;DHT22;33786;48.690;9.562;2023-02-20T07:47:41;21.00;71.70
48019;DHT22;33786;48.690;9.562;2023-02-20T07:50:08;21.50;69.20
48019;DHT22;33786;48.690;9.562;2023-02-20T07:52:35;21.70;69.10
48019;DHT22;33786;48.690;9.562;2023-02-20T07:55:02;21.30;68.70
48019;DHT22;33786;48.690;9.562;2023-02-20T07:57:29;20.80;69.00
48019;DHT22;33786;48.690;9.562;2023-02-20T07:59:57;21.00;68.40
48019;DHT22;33786;48.690;9.562;2023-02-20T08:02:24;21.70;66.50
48019;DHT22;33786;48.690;9.562;2023-02-20T08:04:51;22.30;66.10
48019;DHT22;33786;48.690;9.562;2023-02-20T08:07:17;23.20;64.30
48019;DHT22;33786;48.690;9.562;2023-02-20T08:09:47;23.70;63.30
48019;DHT22;33786;48.690;9.562;2023-02-20T08:12:14;24.00;62.50
48019;DHT22;33786;48.690;9.562;2023-02-20T08:14:42;24.20;61.10
48019;DHT22;33786;48.690;9.562;2023-02-20T08:17:09;24.80;59.10
48019;DHT22;33786;48.690;9.562;2023-02-20T08:19:37;25.20;59.50
48019;DHT22;33786;48.690;9.562;2023-02-20T08:22:04;25.20;57.80
48019;DHT22;33786;48.690;9.562;2023-02-20T08:24:31;25.40;57.50
48019;DHT22;33786;48.690;9.562;2023-02-20T08:26:59;25.40;57.20
48019;DHT22;33786;48.690;9.562;2023-02-20T08:29:25;25.20;56.80
48019;DHT22;33786;48.690;9.562;2023-02-20T08:31:52;25.00;57.00
48019;DHT22;33786;48.690;9.562;2023-02-20T08:34:19;24.60;56.60
48019;DHT22;33786;48.690;9.562;2023-02-20T08:36:46;24.60;56.50
48019;DHT22;33786;48.690;9.562;2023-02-20T08:39:12;23.30;57.30
48019;DHT22;33786;48.690;9.562;2023-02-20T08:41:46;22.60;58.50
48019;DHT22;33786;48.690;9.562;2023-02-20T08:44:13;22.50;59.40
48019;DHT22;33786;48.690;9.562;2023-02-20T08:46:46;22.80;58.40
48019;DHT22;33786;48.690;9.562;2023-02-20T08:49:14;23.00;58.40
48019;DHT22;33786;48.690;9.562;2023-02-20T08:51:47;23.30;57.80
48019;DHT22;33786;48.690;9.562;2023-02-20T08:54:14;22.80;58.30
48019;DHT22;33786;48.690;9.562;2023-02-20T08:56:41;22.00;59.00
48019;DHT22;33786;48.690;9.562;2023-02-20T08:59:09;20.50;60.90
48019;DHT22;33786;48.690;9.562;2023-02-20T09:01:35;20.90;61.50
48019;DHT22;33786;48.690;9.562;2023-02-20T09:04:02;20.80;61.00
48019;DHT22;33786;48.690;9.562;2023-02-20T09:06:30;21.50;60.90
48019;DHT22;33786;48.690;9.562;2023-02-20T09:08:56;22.50;58.60
48019;DHT22;33786;48.690;9.562;2023-02-20T09:11:23;22.70;59.20
48019;DHT22;33786;48.690;9.562;2023-02-20T09:13:50;23.70;58.00
48019;DHT22;33786;48.690;9.562;2023-02-20T09:16:18;23.30;57.90
48019;DHT22;33786;48.690;9.562;2023-02-20T09:18:46;23.00;58.70
48019;DHT22;33786;48.690;9.562;2023-02-20T09:21:14;23.40;57.00
48019;DHT22;33786;48.690;9.562;2023-02-20T09:23:41;24.00;57.50
48019;DHT22;33786;48.690;9.562;2023-02-20T09:26:08;23.90;56.00
48019;DHT22;33786;48.690;9.562;2023-02-20T09:28:35;23.70;57.20
48019;DHT22;33786;48.690;9.562;2023-02-20T09:31:02;22.80;58.50
48019;DHT22;33786;48.690;9.562;2023-02-20T09:33:30;22.90;57.80
48019;DHT22;33786;48.690;9.562;2023-02-20T09:35:56;23.20;58.20
48019;DHT22;33786;48.690;9.562;2023-02-20T09:38:23;24.70;56.00
48019;DHT22;33786;48.690;9.562;2023-02-20T09:40:54;24.80;55.80
48019;DHT22;33786;48.690;9.562;2023-02-20T09:45:56;22.90;57.60
48019;DHT22;33786;48.690;9.562;2023-02-20T09:51:01;22.00;60.10
48019;DHT22;33786;48.690;9.562;2023-02-20T09:55:58;21.80;59.30
48019;DHT22;33786;48.690;9.562;2023-02-20T10:00:54;21.90;60.20
48019;DHT22;33786;48.690;9.562;2023-02-20T10:05:56;22.70;59.20
48019;DHT22;33786;48.690;9.562;2023-02-20T10:08:23;22.80;59.10
48019;DHT22;33786;48.690;9.562;2023-02-20T10:10:51;24.10;57.70
48019;DHT22;33786;48.690;9.562;2023-02-20T10:14:11;24.40;57.20
48019;DHT22;33786;48.690;9.562;2023-02-20T10:18:53;23.70;57.40
48019;DHT22;33786;48.690;9.562;2023-02-20T10:21:29;23.40;57.60
48019;DHT22;33786;48.690;9.562;2023-02-20T10:24:05;23.30;56.80
48019;DHT22;33786;48.690;9.562;2023-02-20T10:26:41;22.50;58.40
48019;DHT22;33786;48.690;9.562;2023-02-20T10:29:15;21.70;60.20
48019;DHT22;33786;48.690;9.562;2023-02-20T10:31:44;21.80;60.10
48019;DHT22;33786;48.690;9.562;2023-02-20T10:34:17;21.70;59.30
48019;DHT22;33786;48.690;9.562;2023-02-20T10:36:49;21.80;60.10
48019;DHT22;33786;48.690;9.562;2023-02-20T10:39:19;20.80;60.40
48019;DHT22;33786;48.690;9.562;2023-02-20T10:44:34;20.30;63.10
48019;DHT22;33786;48.690;9.562;2023-02-20T10:47:30;21.70;61.50
48019;DHT22;33786;48.690;9.562;2023-02-20T10:52:31;22.70;58.80
48019;DHT22;33786;48.690;9.562;2023-02-20T10:57:33;23.60;57.60
48019;DHT22;33786;48.690;9.562;2023-02-20T11:00:06;23.00;57.10
48019;DHT22;33786;48.690;9.562;2023-02-20T11:02:36;21.40;61.10
48019;DHT22;33786;48.690;9.562;2023-02-20T11:05:06;21.50;60.10
48019;DHT22;33786;48.690;9.562;2023-02-20T11:07:34;21.50;60.40
48019;DHT22;33786;48.690;9.562;2023-02-20T11:10:02;21.40;59.90
48019;DHT22;33786;48.690;9.562;2023-02-20T11:12:36;20.60;61.30
48019;DHT22;33786;48.690;9.562;2023-02-20T11:15:07;20.40;62.20
48019;DHT22;33786;48.690;9.562;2023-02-20T11:17:34;20.40;61.30
48019;DHT22;33786;48.690;9.562;2023-02-20T11:20:03;20.10;63.40
48019;DHT22;33786;48.690;9.562;2023-02-20T11:25:14;20.80;62.10
48019;DHT22;33786;48.690;9.562;2023-02-20T11:27:43;20.70;60.50
48019;DHT22;33786;48.690;9.562;2023-02-20T11:32:46;20.80;60.20
48019;DHT22;33786;48.690;9.562;2023-02-20T11:38:29;21.50;60.30
48019;DHT22;33786;48.690;9.562;2023-02-20T11:40:30;21.60;59.60
48019;DHT22;33786;48.690;9.562;2023-02-20T11:43:10;21.60;59.10
48019;DHT22;33786;48.690;9.562;2023-02-20T11:45:41;20.80;60.90
48019;DHT22;33786;48.690;9.562;2023-02-20T11:50:45;20.80;61.50
48019;DHT22;33786;48.690;9.562;2023-02-20T11:53:17;20.30;62.50
48019;DHT22;33786;48.690;9.562;2023-02-20T11:55:45;20.30;62.00
48019;DHT22;33786;48.690;9.562;2023-02-20T11:58:26;19.90;62.40
48019;DHT22;33786;48.690;9.562;2023-02-20T12:00:54;19.90;63.70
48019;DHT22;33786;48.690;9.562;2023-02-20T12:03:22;20.50;62.20
48019;DHT22;33786;48.690;9.562;2023-02-20T12:05:49;20.40;61.50
48019;DHT22;33786;48.690;9.562;2023-02-20T12:08:26;20.20;63.00
48019;DHT22;33786;48.690;9.562;2023-02-20T12:10:55;20.40;61.70
48019;DHT22;33786;48.690;9.562;2023-02-20T12:13:25;20.00;62.30
48019;DHT22;33786;48.690;9.562;2023-02-20T12:21:36;19.00;65.20
48019;DHT22;33786;48.690;9.562;2023-02-20T12:26:51;18.00;66.00
48019;DHT22;33786;48.690;9.562;2023-02-20T12:31:52;16.70;68.50
48019;DHT22;33786;48.690;9.562;2023-02-20T12:37:12;16.30;70.40
48019;DHT22;33786;48.690;9.562;2023-02-20T12:42:31;15.90;71.70
48019;DHT22;33786;48.690;9.562;2023-02-20T12:47:46;16.20;72.10
48019;DHT22;33786;48.690;9.562;2023-02-20T13:00:33;15.80;71.80
48019;DHT22;33786;48.690;9.562;2023-02-20T13:05:47;15.80;72.10
48019;DHT22;33786;48.690;9.562;2023-02-20T13:11:04;15.80;72.00
48019;DHT22;33786;48.690;9.562;2023-02-20T13:13:36;16.00;73.60
48019;DHT22;33786;48.690;9.562;2023-02-20T13:16:12;16.30;71.50
48019;DHT22;33786;48.690;9.562;2023-02-20T13:19:28;16.20;71.30
48019;DHT22;33786;48.690;9.562;2023-02-20T13:21:33;16.30;70.30
48019;DHT22;33786;48.690;9.562;2023-02-20T13:26:49;16.00;71.20
48019;DHT22;33786;48.690;9.562;2023-02-20T13:29:18;16.10;71.90
48019;DHT22;33786;48.690;9.562;2023-02-20T13:36:45;15.90;72.10
48019;DHT22;33786;48.690;9.562;2023-02-20T13:46:57;16.00;71.10
48019;DHT22;33786;48.690;9.562;2023-02-20T13:49:58;16.00;71.30
48019;DHT22;33786;48.690;9.562;2023-02-20T14:00:51;16.10;71.40
48019;DHT22;33786;48.690;9.562;2023-02-20T14:02:58;15.90;70.20
48019;DHT22;33786;48.690;9.562;2023-02-20T14:05:26;15.90;71.90
48019;DHT22;33786;48.690;9.562;2023-02-20T14:07:53;16.00;69.30
48019;DHT22;33786;48.690;9.562;2023-02-20T14:10:27;15.90;69.60
48019;DHT22;33786;48.690;9.562;2023-02-20T14:16:22;15.80;70.40
48019;DHT22;33786;48.690;9.562;2023-02-20T14:18:49;16.00;70.30
48019;DHT22;33786;48.690;9.562;2023-02-20T14:21:20;15.90;70.10
48019;DHT22;33786;48.690;9.562;2023-02-20T14:23:48;15.90;71.30
48019;DHT22;33786;48.690;9.562;2023-02-20T14:28:46;15.90;70.40
48019;DHT22;33786;48.690;9.562;2023-02-20T14:33:49;15.80;70.10
48019;DHT22;33786;48.690;9.562;2023-02-20T14:38:49;15.60;71.40
48019;DHT22;33786;48.690;9.562;2023-02-20T14:41:18;15.60;70.80
48019;DHT22;33786;48.690;9.562;2023-02-20T14:43:58;15.60;70.20
48019;DHT22;33786;48.690;9.562;2023-02-20T14:46:27;15.60;71.20
48019;DHT22;33786;48.690;9.562;2023-02-20T14:51:33;15.50;71.10
48019;DHT22;33786;48.690;9.562;2023-02-20T14:54:00;15.50;70.20
48019;DHT22;33786;48.690;9.562;2023-02-20T14:56:27;15.40;70.00
48019;DHT22;33786;48.690;9.562;2023-02-20T14:58:54;15.40;70.80
48019;DHT22;33786;48.690;9.562;2023-02-20T15:04:02;15.30;70.90
48019;DHT22;33786;48.690;9.562;2023-02-20T15:06:30;15.40;70.30
48019;DHT22;33786;48.690;9.562;2023-02-20T15:08:59;15.40;70.30
48019;DHT22;33786;48.690;9.562;2023-02-20T15:11:45;15.40;70.50
48019;DHT22;33786;48.690;9.562;2023-02-20T15:14:16;15.40;70.70
48019;DHT22;33786;48.690;9.562;2023-02-20T15:16:43;15.40;69.80
48019;DHT22;33786;48.690;9.562;2023-02-20T15:21:56;15.40;70.40
48019;DHT22;33786;48.690;9.562;2023-02-20T15:26:50;15.40;70.50
48019;DHT22;33786;48.690;9.562;2023-02-20T15:31:44;15.30;70.30
48019;DHT22;33786;48.690;9.562;2023-02-20T15:34:14;15.30;70.70
48019;DHT22;33786;48.690;9.562;2023-02-20T15:36:43;15.30;70.90
48019;DHT22;33786;48.690;9.562;2023-02-20T15:39:09;15.20;70.80
48019;DHT22;33786;48.690;9.562;2023-02-20T15:41:37;15.10;70.80
48019;DHT22;33786;48.690;9.562;2023-02-20T15:44:03;15.10;71.20
48019;DHT22;33786;48.690;9.562;2023-02-20T15:46:30;15.10;71.00
48019;DHT22;33786;48.690;9.562;2023-02-20T15:48:57;15.10;71.40
48019;DHT22;33786;48.690;9.562;2023-02-20T15:51:26;15.00;71.10
48019;DHT22;33786;48.690;9.562;2023-02-20T15:53:54;15.10;71.40
48019;DHT22;33786;48.690;9.562;2023-02-20T15:56:21;14.90;70.90
48019;DHT22;33786;48.690;9.562;2023-02-20T15:58:48;14.80;71.30
48019;DHT22;33786;48.690;9.562;2023-02-20T16:01:15;14.70;71.80
48019;DHT22;33786;48.690;9.562;2023-02-20T16:03:42;14.60;71.90
48019;DHT22;33786;48.690;9.562;2023-02-20T16:06:21;14.60;71.80
48019;DHT22;33786;48.690;9.562;2023-02-20T16:08:49;14.60;72.10
48019;DHT22;33786;48.690;9.562;2023-02-20T16:11:17;14.60;72.60
48019;DHT22;33786;48.690;9.562;2023-02-20T16:13:44;14.40;72.50
48019;DHT22;33786;48.690;9.562;2023-02-20T16:16:19;14.40;72.70
48019;DHT22;33786;48.690;9.562;2023-02-20T16:18:51;14.30;73.00
48019;DHT22;33786;48.690;9.562;2023-02-20T16:21:20;14.20;73.30
48019;DHT22;33786;48.690;9.562;2023-02-20T16:23:47;14.10;74.10
48019;DHT22;33786;48.690;9.562;2023-02-20T16:26:25;14.00;74.00
48019;DHT22;33786;48.690;9.562;2023-02-20T16:29:00;13.90;73.80
48019;DHT22;33786;48.690;9.562;2023-02-20T16:34:12;13.60;73.80
48019;DHT22;33786;48.690;9.562;2023-02-20T16:36:47;13.50;73.70
48019;DHT22;33786;48.690;9.562;2023-02-20T16:39:14;13.30;74.10
48019;DHT22;33786;48.690;9.562;2023-02-20T16:41:51;13.20;74.50
48019;DHT22;33786;48.690;9.562;2023-02-20T16:44:34;13.10;74.70
48019;DHT22;33786;48.690;9.562;2023-02-20T16:47:02;12.90;75.60
48019;DHT22;33786;48.690;9.562;2023-02-20T16:49:35;12.80;76.00
48019;DHT22;33786;48.690;9.562;2023-02-20T16:52:11;12.60;76.40
48019;DHT22;33786;48.690;9.562;2023-02-20T16:54:44;12.50;77.10
48019;DHT22;33786;48.690;9.562;2023-02-20T16:57:11;12.30;77.40
48019;DHT22;33786;48.690;9.562;2023-02-20T16:59:37;12.20;77.40
48019;DHT22;33786;48.690;9.562;2023-02-20T17:02:04;12.10;77.60
48019;DHT22;33786;48.690;9.562;2023-02-20T17:04:32;11.90;78.40
48019;DHT22;33786;48.690;9.562;2023-02-20T17:06:58;11.80;78.40
48019;DHT22;33786;48.690;9.562;2023-02-20T17:09:25;11.70;79.00
48019;DHT22;33786;48.690;9.562;2023-02-20T17:12:08;11.50;79.00
48019;DHT22;33786;48.690;9.562;2023-02-20T17:14:35;11.30;79.70
48019;DHT22;33786;48.690;9.562;2023-02-20T17:17:01;11.20;80.30
48019;DHT22;33786;48.690;9.562;2023-02-20T17:19:28;11.10;80.90
48019;DHT22;33786;48.690;9.562;2023-02-20T17:21:58;10.80;81.80
48019;DHT22;33786;48.690;9.562;2023-02-20T17:24:25;10.70;82.40
48019;DHT22;33786;48.690;9.562;2023-02-20T17:26:53;10.50;83.20
48019;DHT22;33786;48.690;9.562;2023-02-20T17:29:20;10.20;84.30
48019;DHT22;33786;48.690;9.562;2023-02-20T17:31:47;10.00;85.30
48019;DHT22;33786;48.690;9.562;2023-02-20T17:34:15;9.80;86.20
48019;DHT22;33786;48.690;9.562;2023-02-20T17:36:42;9.70;86.80
48019;DHT22;33786;48.690;9.562;2023-02-20T17:39:14;9.50;88.10
48019;DHT22;33786;48.690;9.562;2023-02-20T17:41:41;9.30;89.10
48019;DHT22;33786;48.690;9.562;2023-02-20T17:44:08;9.10;89.90
48019;DHT22;33786;48.690;9.562;2023-02-20T17:46:35;8.90;90.40
48019;DHT22;33786;48.690;9.562;2023-02-20T17:49:02;8.70;90.90
48019;DHT22;33786;48.690;9.562;2023-02-20T17:51:29;8.50;91.20
48019;DHT22;33786;48.690;9.562;2023-02-20T17:53:56;8.30;91.80
48019;DHT22;33786;48.690;9.562;2023-02-20T17:56:22;8.20;92.00
48019;DHT22;33786;48.690;9.562;2023-02-20T17:58:50;8.00;92.20
48019;DHT22;33786;48.690;9.562;2023-02-20T18:01:17;7.80;92.60
48019;DHT22;33786;48.690;9.562;2023-02-20T18:03:44;7.60;93.20
48019;DHT22;33786;48.690;9.562;2023-02-20T18:06:11;7.50;93.70
48019;DHT22;33786;48.690;9.562;2023-02-20T18:08:38;7.40;94.00
48019;DHT22;33786;48.690;9.562;2023-02-20T18:11:05;7.30;94.20
48019;DHT22;33786;48.690;9.562;2023-02-20T18:13:32;7.20;94.70
48019;DHT22;33786;48.690;9.562;2023-02-20T18:15:59;7.10;95.20